Flight Track Log - Related Links

Times and Time Zones

All times are in EDT time to prevent confusion due to time zone crossing. See the SWA2236 flight status page for this flight to view local times or setup timezone preferences in your user account.

Time Position Orientation Groundspeed Altitude Reporting Facility
EDT Latitude Longitude Course Direction KTS MPH feet Rate Location/Type
Mon 07:44:58 AM 42.2281 -83.3533 354° North 148 170 1,400  Level Cleveland Center
Mon 07:45:46 AM 42.2633 -83.3583 354° North 181 208 3,000 2,113 Climbing Cleveland Center
Mon 07:46:09 AM 42.2761 -83.3589 358° North 199 229 3,900 2,129 Climbing Cleveland Center
Mon 07:46:48 AM 42.3139 -83.3822 335° Northwest 231 266 5,200 2,129 Climbing Cleveland Center
Mon 07:47:11 AM 42.3261 -83.4092 302° West 236 272 6,100 3,643 Climbing Cleveland Center
Mon 07:48:12 AM 42.3261 -83.5058 270° West 274 315 10,300 3,366 Climbing Cleveland Center
Mon 07:49:14 AM 42.3156 -83.6192 263° West 297 342 13,000 2,903 Climbing Cleveland Center
Mon 07:50:16 AM 42.3047 -83.7458 263° West 337 388 16,300 2,903 Climbing Cleveland Center
Mon 07:51:18 AM 42.2928 -83.8764 263° West 350 403 19,000 2,710 Climbing Cleveland Center
Mon 07:52:20 AM 42.2803 -84.0092 263° West 357 411 21,900 1,452 Climbing Cleveland Center
Mon 07:53:22 AM 42.2647 -84.1650 262° West 351 404 22,000 49 Climbing Cleveland Center
Mon 07:54:23 AM 42.2114 -84.2825 239° Southwest 368 423 22,000  Level Cleveland Center
Mon 07:55:25 AM 42.1528 -84.3939 235° Southwest 368 423 22,000  Level Cleveland Center
Mon 07:56:27 AM 42.0925 -84.5164 236° Southwest 363 418 22,000  Level Cleveland Center
Mon 07:57:18 AM 42.0428 -84.6108 235° Southwest 365 420 22,000  Level Chicago Center
Mon 07:58:20 AM 41.9839 -84.7228 235° Southwest 366 421 22,000  Level Chicago Center
Mon 07:59:22 AM 41.9289 -84.8317 236° Southwest 368 423 22,000  Level Chicago Center
Mon 08:00:24 AM 41.8694 -84.9436 235° Southwest 367 422 22,000  Level Chicago Center
Mon 08:01:25 AM 41.8106 -85.0569 235° Southwest 371 427 22,000 -146 Level Chicago Center
Mon 08:02:27 AM 41.7394 -85.1928 235° Southwest 372 428 21,700 -677 Descending Chicago Center
Mon 08:03:29 AM 41.6633 -85.2844 222° Southwest 370 426 20,600 -1,065 Descending Chicago Center
Mon 08:04:31 AM 41.5819 -85.3739 219° Southwest 362 417 19,500 -1,016 Descending Chicago Center
Mon 08:05:33 AM 41.5083 -85.4606 221° Southwest 350 403 18,500 -823 Descending Chicago Center
Mon 08:06:35 AM 41.4433 -85.5439 224° Southwest 328 377 17,800 -780 Descending Chicago Center
Mon 08:07:36 AM 41.4592 -85.6525 281° West 307 353 16,900 -878 Descending Chicago Center
Mon 08:08:38 AM 41.4786 -85.7725 282° West 326 375 16,000 -435 Descending Chicago Center
Mon 08:09:40 AM 41.4994 -85.8908 283° West 327 376 16,000  Level Chicago Center
Mon 08:10:42 AM 41.5219 -86.0142 284° West 340 391 16,000 -290 Level Chicago Center
Mon 08:11:44 AM 41.5247 -86.1453 272° West 350 403 15,400 -1,645 Descending Chicago Center
Mon 08:12:46 AM 41.5228 -86.2978 269° West 345 397 12,600 -2,129 Descending Chicago Center
Mon 08:13:48 AM 41.5219 -86.4236 270° West 340 391 11,000 -774 Descending Chicago Center
Mon 08:14:50 AM 41.5217 -86.5453 270° West 330 380 11,000 -242 Level Chicago Center
Mon 08:15:52 AM 41.5203 -86.6636 269° West 320 368 10,500 -581 Descending Chicago Center
Mon 08:16:54 AM 41.4936 -86.7803 253° West 311 358 9,800 -871 Descending Chicago Center
Mon 08:17:56 AM 41.4742 -86.8814 256° West 301 346 8,700 -1,016 Descending Chicago Center
Mon 08:18:58 AM 41.4892 -86.9842 281° West 288 331 7,700 -823 Descending Chicago Center
Mon 08:20:00 AM 41.5075 -87.1050 281° West 279 321 7,000 -576 Descending Chicago Center
Mon 08:21:03 AM 41.5175 -87.2067 278° West 280 322 6,500 -672 Descending Chicago Center
Mon 08:22:05 AM 41.5144 -87.3108 268° West 282 325 5,600 -968 Descending Chicago Center
Mon 08:23:07 AM 41.5125 -87.4142 269° West 282 325 4,500 -774 Descending Chicago Center
Mon 08:24:09 AM 41.5128 -87.5150 270° West 278 320 4,000 -242 Descending Chicago Center
Mon 08:25:11 AM 41.5369 -87.6300 286° West 274 315 4,000  Level Chicago Center
Mon 08:26:13 AM 41.5528 -87.7269 282° West 271 312 4,000 -145 Level Chicago Center
Mon 08:27:15 AM 41.5664 -87.8161 282° West 261 300 3,700 -677 Descending Chicago Center
Mon 08:28:17 AM 41.5922 -87.8875 296° West 238 274 2,600 -629 Descending Chicago Center
Mon 08:29:19 AM 41.6292 -87.9322 318° Northwest 213 245 2,400 -48 Descending Chicago Center
Mon 08:30:21 AM 41.6722 -87.8978 31° Northeast 169 194 2,500 48 Climbing Chicago Center
Mon 08:31:23 AM 41.7031 -87.8564 45° Northeast 160 184 2,500 -290 Level Chicago Center
Mon 08:32:25 AM 41.7333 -87.8178 44° Northeast 156 180 1,900 -576 Descending Chicago Center
Mon 08:33:28 AM 41.7567 -87.7883 43° Northeast 137 158 1,300 -432 Descending Chicago Center
Mon 08:34:30 AM 41.7850 -87.7531 43° Northeast 130 150 1,000 -290 Descending Chicago Center
Mon 08:36:00 AM 41.7833 -87.7500 42° Northeast  Level FlightAware Approximate

Login

Don't have an account? Register now (free) for customized features, flight alerts, and more!